KHON/HON METAR and TAF weather

Enter ICAO airport designator
Station Type Date Time Source
KHON METAR 2020/06/06 01:55 UTC NOAA

KHON 060155Z AUTO 06008KT 10SM CLR 22/09 A2998 RMK AO2 SLP147 T02170094


Station Type Date Time Source
KHON Decoded METAR 2020/06/06 01:55 UTC NOAA

HURON REGIONAL AIRPORT, SD, United States (KHON) 44-23N 098-14W 390M
Jun 05, 2020 - 09:55 PM EDT / 2020.06.06 0155 UTC
Wind: from the ENE (060 degrees) at 9 MPH (8 KT):0
Visibility: 10 mile(s):0
Sky conditions: clear
Temperature: 71.1 F (21.7 C)
Dew Point: 48.9 F (9.4 C)
Relative Humidity: 45%
Pressure (altimeter): 29.98 in. Hg (1015 hPa)
ob: KHON 060155Z AUTO 06008KT 10SM CLR 22/09 A2998 RMK AO2 SLP147 T02170094
cycle: 2

Station Type Date Time Source
KHON TAF 2020/06/05 18:39 UTC NOAA

TAF KHON 051736Z 0518/0618 06010KT P6SM FEW250
FM061100 12010KT P6SM SCT100 WS014/14040KT
FM061400 12016G28KT P6SM BKN100 PROB30 0615/0618 6SM -TSRA OVC040CB

Example: see airport list